createdAt,value
2022-11-28T00:02:31.715Z,37.87
2022-11-28T00:05:35.809Z,36.97
2022-11-28T00:08:37.980Z,36.93
2022-11-28T00:11:41.541Z,37.40
2022-11-28T00:14:43.819Z,37.83
2022-11-28T00:17:45.871Z,37.53
2022-11-28T00:20:48.062Z,36.93
2022-11-28T00:23:50.737Z,36.33
2022-11-28T00:26:52.819Z,36.57
2022-11-28T00:29:56.678Z,36.30
2022-11-28T00:32:58.776Z,36.67
2022-11-28T00:36:06.266Z,35.37
2022-11-28T00:39:08.534Z,37.53
2022-11-28T00:42:10.392Z,35.57
2022-11-28T00:45:12.516Z,35.87
2022-11-28T00:48:14.328Z,37.10
2022-11-28T00:51:19.804Z,38.10
2022-11-28T00:54:21.617Z,38.80
2022-11-28T00:57:23.730Z,37.50
2022-11-28T01:00:26.721Z,38.37
2022-11-28T01:03:28.914Z,37.67
2022-11-28T01:06:48.595Z,39.00
2022-11-28T01:09:50.857Z,37.80
2022-11-28T01:12:52.685Z,38.60
2022-11-28T01:15:55.076Z,41.33
2022-11-28T01:18:57.249Z,42.20
2022-11-28T01:21:59.354Z,41.93
2022-11-28T01:25:01.233Z,40.10
2022-11-28T01:28:03.488Z,40.97
2022-11-28T01:31:10.105Z,42.27
2022-11-28T01:34:12.257Z,41.97
2022-11-28T01:37:14.217Z,40.73
2022-11-28T01:40:16.661Z,41.13
2022-11-28T01:43:19.239Z,42.10
2022-11-28T01:46:21.361Z,41.33
2022-11-28T01:49:29.625Z,41.67
2022-11-28T01:52:32.121Z,39.47
2022-11-28T01:55:40.999Z,39.67
2022-11-28T01:58:47.268Z,38.23
2022-11-28T02:01:49.262Z,40.10
2022-11-28T02:04:52.295Z,37.77
2022-11-28T02:07:54.392Z,37.53
2022-11-28T02:11:11.428Z,37.60
2022-11-28T02:14:16.048Z,37.40
2022-11-28T02:17:39.870Z,37.30
2022-11-28T02:21:13.732Z,35.00
2022-11-28T02:24:49.886Z,36.07
2022-11-28T02:28:08.210Z,37.93
2022-11-28T02:31:24.493Z,37.50
2022-11-28T02:34:43.121Z,36.23
2022-11-28T02:38:08.723Z,38.73
2022-11-28T02:41:26.695Z,35.50
2022-11-28T02:44:43.417Z,39.63
2022-11-28T02:47:52.160Z,37.60
2022-11-28T02:51:08.869Z,37.43
2022-11-28T02:54:14.615Z,38.43
2022-11-28T02:57:16.916Z,37.90
2022-11-28T03:00:31.596Z,37.67
2022-11-28T03:03:54.343Z,36.50
2022-11-28T03:07:28.143Z,37.87
2022-11-28T03:10:58.491Z,40.27
2022-11-28T03:14:30.107Z,39.30
2022-11-28T03:18:07.946Z,37.63
2022-11-28T03:21:27.591Z,37.40
2022-11-28T03:24:35.938Z,39.37
2022-11-28T03:28:03.243Z,38.53
2022-11-28T03:31:14.033Z,39.50
2022-11-28T03:34:19.767Z,39.43
2022-11-28T03:37:26.764Z,39.67
2022-11-28T03:40:34.499Z,38.57
2022-11-28T03:43:41.948Z,39.23
2022-11-28T03:46:47.457Z,37.33
2022-11-28T03:49:53.159Z,39.93
2022-11-28T03:53:09.425Z,38.13
2022-11-28T03:56:13.758Z,38.50
2022-11-28T03:59:26.480Z,37.83
2022-11-28T04:02:45.477Z,38.17
2022-11-28T04:06:08.145Z,37.43
2022-11-28T04:09:35.403Z,35.30
2022-11-28T04:12:59.177Z,36.43
2022-11-28T04:16:42.053Z,32.40
2022-11-28T04:19:52.000Z,34.27
2022-11-28T04:23:04.631Z,34.80
2022-11-28T04:26:30.150Z,31.70
2022-11-28T04:29:37.020Z,34.30
2022-11-28T04:32:42.193Z,33.23
2022-11-28T04:35:51.469Z,33.27
2022-11-28T04:38:56.497Z,32.03
2022-11-28T04:42:31.725Z,31.47
2022-11-28T04:45:39.934Z,32.20
2022-11-28T04:48:42.332Z,32.80
2022-11-28T04:52:36.593Z,32.07
2022-11-28T04:55:45.477Z,31.13
2022-11-28T04:58:49.507Z,31.37
2022-11-28T05:01:51.743Z,31.73
2022-11-28T05:04:55.696Z,28.33
2022-11-28T05:07:59.584Z,31.53
2022-11-28T05:11:01.606Z,30.37
2022-11-28T05:14:04.166Z,30.57
2022-11-28T05:17:06.295Z,27.63
2022-11-28T05:20:08.727Z,30.97
2022-11-28T05:23:11.032Z,28.70
2022-11-28T05:26:19.485Z,30.13
2022-11-28T05:29:21.359Z,29.50
2022-11-28T05:32:23.483Z,29.13
2022-11-28T05:35:25.443Z,29.60
2022-11-28T05:38:27.556Z,29.73
2022-11-28T05:41:31.839Z,30.83
2022-11-28T05:44:33.953Z,30.13
2022-11-28T05:47:36.080Z,30.93
2022-11-28T05:50:41.767Z,31.03
2022-11-28T05:53:43.841Z,30.37
2022-11-28T05:56:46.044Z,28.97
2022-11-28T05:59:47.865Z,29.87
2022-11-28T06:02:50.077Z,29.80
2022-11-28T06:05:51.905Z,31.43
2022-11-28T06:08:54.156Z,31.27
2022-11-28T06:11:56.810Z,31.53
2022-11-28T06:14:59.119Z,30.97
2022-11-28T06:18:00.948Z,29.77
2022-11-28T06:21:04.817Z,29.07
2022-11-28T06:24:07.284Z,29.70
2022-11-28T06:27:09.420Z,28.47
2022-11-28T06:30:17.131Z,28.93
2022-11-28T06:33:19.283Z,27.60
2022-11-28T06:36:21.323Z,27.87
2022-11-28T06:39:23.450Z,27.53
2022-11-28T06:42:25.360Z,28.30
2022-11-28T06:45:27.518Z,27.17
2022-11-28T06:48:29.642Z,27.47
2022-11-28T06:51:31.810Z,27.37
2022-11-28T06:54:33.610Z,27.57
2022-11-28T06:57:36.874Z,26.27
2022-11-28T07:00:38.888Z,26.97
2022-11-28T07:03:41.492Z,26.47
2022-11-28T07:06:44.732Z,26.73
2022-11-28T07:09:47.023Z,25.50
2022-11-28T07:12:54.572Z,25.90
2022-11-28T07:15:56.716Z,26.57
2022-11-28T07:18:59.457Z,26.40
2022-11-28T07:22:01.783Z,25.03
2022-11-28T07:25:07.766Z,25.83
2022-11-28T07:28:09.983Z,25.60
2022-11-28T07:31:32.137Z,26.30
2022-11-28T07:34:37.932Z,25.17
2022-11-28T07:37:42.371Z,24.47
2022-11-28T07:40:44.881Z,26.27
2022-11-28T07:43:48.484Z,26.40
2022-11-28T07:46:50.683Z,25.17
2022-11-28T07:49:52.812Z,26.40
2022-11-28T07:53:00.729Z,24.50
2022-11-28T07:56:09.300Z,25.97
2022-11-28T07:59:13.816Z,27.27
2022-11-28T08:02:16.423Z,27.27
2022-11-28T08:05:18.646Z,27.67
2022-11-28T08:08:20.517Z,25.47
2022-11-28T08:11:24.493Z,26.17
2022-11-28T08:14:26.354Z,26.20
2022-11-28T08:17:28.533Z,25.03
2022-11-28T08:20:30.384Z,25.17
2022-11-28T08:23:36.390Z,26.27
2022-11-28T08:27:09.444Z,25.80
2022-11-28T08:30:12.056Z,23.30
2022-11-28T08:33:13.877Z,25.60
2022-11-28T08:36:17.433Z,24.20
2022-11-28T08:39:26.490Z,23.77
2022-11-28T08:42:29.093Z,26.07
2022-11-28T08:45:31.512Z,26.27
2022-11-28T08:48:35.581Z,25.80
2022-11-28T08:51:37.438Z,24.13
2022-11-28T08:54:39.572Z,24.33
2022-11-28T08:57:41.464Z,25.40
2022-11-28T09:00:43.914Z,24.67
2022-11-28T09:03:46.436Z,22.77
2022-11-28T09:06:53.691Z,25.97
2022-11-28T09:09:55.482Z,23.13
2022-11-28T09:13:00.214Z,25.03
2022-11-28T09:16:02.796Z,22.30
2022-11-28T09:19:06.991Z,25.40
2022-11-28T09:22:08.857Z,24.70
2022-11-28T09:25:13.784Z,25.80
2022-11-28T09:28:18.679Z,26.30
2022-11-28T09:31:24.359Z,27.70
2022-11-28T09:34:27.330Z,27.57
2022-11-28T09:37:29.603Z,28.47
2022-11-28T09:40:43.721Z,27.20
2022-11-28T09:43:51.998Z,26.57
2022-11-28T09:47:01.243Z,26.73
2022-11-28T09:50:26.491Z,25.30
2022-11-28T09:54:00.647Z,25.10
2022-11-28T09:57:08.764Z,25.17
2022-11-28T10:00:19.490Z,24.07
2022-11-28T10:04:01.619Z,25.00
2022-11-28T10:07:19.477Z,25.23
2022-11-28T10:10:40.798Z,27.27
2022-11-28T10:14:08.399Z,25.97
2022-11-28T10:17:43.086Z,25.60
2022-11-28T10:20:47.995Z,25.70
2022-11-28T10:23:56.577Z,26.13
2022-11-28T10:27:01.395Z,26.97
2022-11-28T10:30:11.050Z,24.27
2022-11-28T10:33:26.996Z,26.20
2022-11-28T10:36:37.378Z,25.17
2022-11-28T10:39:43.395Z,26.00
2022-11-28T10:43:18.475Z,25.90
2022-11-28T10:46:55.097Z,25.67
2022-11-28T10:50:16.230Z,26.87
2022-11-28T10:53:50.681Z,24.53
2022-11-28T10:57:11.709Z,34.77
2022-11-28T11:00:18.781Z,26.13
2022-11-28T11:03:31.129Z,26.30
2022-11-28T11:06:41.607Z,25.63
2022-11-28T11:09:45.373Z,24.87
2022-11-28T11:12:52.113Z,25.40
2022-11-28T11:16:27.985Z,26.20
2022-11-28T11:19:38.214Z,26.73
2022-11-28T11:22:40.487Z,25.27
2022-11-28T11:25:49.218Z,27.53
2022-11-28T11:28:52.241Z,27.63
2022-11-28T11:31:54.933Z,27.77
2022-11-28T11:34:58.702Z,25.67
2022-11-28T11:38:20.773Z,26.70
2022-11-28T11:41:31.194Z,27.23
2022-11-28T11:44:35.508Z,26.83
2022-11-28T11:47:42.988Z,25.10
2022-11-28T11:50:54.887Z,26.73
2022-11-28T11:54:20.656Z,27.30
2022-11-28T11:57:40.621Z,26.73
2022-11-28T12:00:44.018Z,26.83
2022-11-28T12:03:56.741Z,25.63
2022-11-28T12:07:02.917Z,27.47
2022-11-28T12:10:10.126Z,26.37
2022-11-28T12:13:20.426Z,25.83
2022-11-28T12:16:34.085Z,25.43
2022-11-28T12:19:55.246Z,25.27
2022-11-28T12:22:57.000Z,24.70
2022-11-28T12:26:07.120Z,22.67
2022-11-28T12:29:41.947Z,23.90
2022-11-28T12:32:53.094Z,24.30
2022-11-28T12:36:21.308Z,24.50
2022-11-28T12:39:32.062Z,22.17
2022-11-28T12:42:52.733Z,25.50
2022-11-28T12:46:05.359Z,25.77
2022-11-28T12:49:11.151Z,24.50
2022-11-28T12:52:32.158Z,22.10
2022-11-28T12:55:53.813Z,23.67
2022-11-28T12:59:14.219Z,23.27
2022-11-28T13:02:50.021Z,24.53
2022-11-28T13:06:02.650Z,23.67
2022-11-28T13:09:23.067Z,24.80
2022-11-28T13:12:46.572Z,24.53
2022-11-28T13:16:20.792Z,23.60
2022-11-28T13:19:54.554Z,23.97
2022-11-28T13:23:15.007Z,22.43
2022-11-28T13:26:41.406Z,22.67
2022-11-28T13:30:17.004Z,21.97
2022-11-28T13:33:53.314Z,24.80
2022-11-28T13:41:03.156Z,22.07
2022-11-28T13:44:25.855Z,22.47
2022-11-28T13:47:31.158Z,22.00
2022-11-28T13:50:35.991Z,21.97
2022-11-28T13:53:39.400Z,21.20
2022-11-28T13:56:41.263Z,21.43
2022-11-28T13:59:56.362Z,20.60
2022-11-28T14:03:00.000Z,20.13
2022-11-28T14:06:07.569Z,20.73
2022-11-28T14:09:12.440Z,19.37
2022-11-28T14:12:27.045Z,20.40
2022-11-28T14:15:48.537Z,20.27
2022-11-28T14:19:32.283Z,21.50
2022-11-28T14:22:56.991Z,22.03
2022-11-28T14:25:59.561Z,22.50
2022-11-28T14:29:05.088Z,22.90
2022-11-28T14:32:30.068Z,21.23
2022-11-28T14:35:54.073Z,21.67
2022-11-28T14:39:11.978Z,23.63
2022-11-28T14:42:30.482Z,25.00
2022-11-28T14:45:44.726Z,24.37
2022-11-28T14:49:15.155Z,23.67
2022-11-28T14:52:38.577Z,24.53
2022-11-28T14:55:41.587Z,21.83
2022-11-28T14:58:52.482Z,25.17
2022-11-28T15:02:20.572Z,25.83
2022-11-28T15:06:10.585Z,26.13
2022-11-28T15:09:24.480Z,24.13
2022-11-28T15:12:45.542Z,24.80
2022-11-28T15:15:52.839Z,23.47
2022-11-28T15:19:02.075Z,24.00
2022-11-28T15:22:04.456Z,24.17
2022-11-28T15:25:24.780Z,23.90
2022-11-28T15:28:32.090Z,25.03
2022-11-28T15:31:34.254Z,25.57
2022-11-28T15:34:38.431Z,23.93
2022-11-28T15:37:54.634Z,25.07
2022-11-28T15:40:57.568Z,23.83
2022-11-28T15:43:59.924Z,25.43
2022-11-28T15:47:01.947Z,25.53
2022-11-28T15:50:09.901Z,23.47
2022-11-28T15:53:17.525Z,24.57
2022-11-28T15:56:19.811Z,25.27
2022-11-28T15:59:21.697Z,25.63
2022-11-28T16:02:28.076Z,26.27
2022-11-28T16:05:32.470Z,25.10
2022-11-28T16:08:40.954Z,23.87
2022-11-28T16:11:44.953Z,26.53
2022-11-28T16:14:49.007Z,25.83
2022-11-28T16:17:53.356Z,26.80
2022-11-28T16:20:58.103Z,24.97
2022-11-28T16:24:00.956Z,23.93
2022-11-28T16:27:06.833Z,24.47
2022-11-28T16:30:48.934Z,25.33
2022-11-28T16:33:52.080Z,22.90
2022-11-28T16:36:54.945Z,24.43
2022-11-28T16:40:21.321Z,25.73
2022-11-28T16:43:42.834Z,25.60
2022-11-28T16:46:55.150Z,25.93
2022-11-28T16:50:21.784Z,27.10
2022-11-28T16:53:44.361Z,26.30
2022-11-28T16:56:49.235Z,25.97
2022-11-28T16:59:52.804Z,24.73
2022-11-28T17:02:54.638Z,26.27
2022-11-28T17:05:57.457Z,24.77
2022-11-28T17:09:00.813Z,26.97
2022-11-28T17:12:04.642Z,27.43
2022-11-28T17:15:11.749Z,26.47
2022-11-28T17:18:14.021Z,24.67
2022-11-28T17:21:17.582Z,24.60
2022-11-28T17:24:26.454Z,26.13
2022-11-28T17:27:28.469Z,30.03
2022-11-28T17:30:30.917Z,29.57
2022-11-28T17:33:32.973Z,29.13
2022-11-28T17:36:36.573Z,25.10
2022-11-28T17:39:38.715Z,24.23
2022-11-28T17:42:40.862Z,24.53
2022-11-28T17:45:44.393Z,25.83
2022-11-28T17:48:46.555Z,24.90
2022-11-28T17:51:48.892Z,23.97
2022-11-28T17:54:50.968Z,23.23
2022-11-28T17:57:54.166Z,24.80
2022-11-28T18:01:00.463Z,25.63
2022-11-28T18:04:04.543Z,25.03
2022-11-28T18:07:06.703Z,23.40
2022-11-28T18:10:09.831Z,24.50
2022-11-28T18:13:12.497Z,24.83
2022-11-28T18:16:16.943Z,22.80
2022-11-28T18:19:19.328Z,24.03
2022-11-28T18:22:21.284Z,24.20
2022-11-28T18:25:24.193Z,22.37
2022-11-28T18:28:26.022Z,24.00
2022-11-28T18:31:30.488Z,21.83
2022-11-28T18:34:32.528Z,21.83
2022-11-28T18:37:35.083Z,22.20
2022-11-28T18:40:38.896Z,22.50
2022-11-28T18:43:41.354Z,22.77
2022-11-28T18:46:44.303Z,25.70
2022-11-28T18:49:46.828Z,22.17
2022-11-28T18:52:49.083Z,21.50
2022-11-28T18:56:03.466Z,20.70
2022-11-28T18:59:05.689Z,20.60
2022-11-28T19:02:07.861Z,21.50
2022-11-28T19:05:10.084Z,20.43
2022-11-28T19:08:12.248Z,21.70
2022-11-28T19:11:17.044Z,21.03
2022-11-28T19:14:21.145Z,20.57
2022-11-28T19:17:23.038Z,20.87
2022-11-28T19:20:25.230Z,20.53
2022-11-28T19:23:27.346Z,19.20
2022-11-28T19:26:31.213Z,20.43
2022-11-28T19:29:33.088Z,23.63
2022-11-28T19:32:36.304Z,21.63
2022-11-28T19:35:38.160Z,19.97
2022-11-28T19:38:41.257Z,20.57
2022-11-28T19:41:43.790Z,20.67
2022-11-28T19:44:45.981Z,20.50
2022-11-28T19:47:48.618Z,21.17
2022-11-28T19:50:51.511Z,20.33
2022-11-28T19:53:56.206Z,21.50
2022-11-28T19:57:00.714Z,19.13
2022-11-28T20:00:03.686Z,20.00
2022-11-28T20:03:06.389Z,21.33
2022-11-28T20:06:14.752Z,20.77
2022-11-28T20:09:16.932Z,21.10
2022-11-28T20:12:18.806Z,21.17
2022-11-28T20:15:21.832Z,21.30
2022-11-28T20:18:23.668Z,25.30
2022-11-28T20:21:26.113Z,21.00
2022-11-28T20:24:30.177Z,21.53
2022-11-28T20:27:32.690Z,22.03
2022-11-28T20:30:36.576Z,21.07
2022-11-28T20:33:38.673Z,21.73
2022-11-28T20:36:41.170Z,23.03
2022-11-28T20:39:43.513Z,22.63
2022-11-28T20:42:45.842Z,21.37
2022-11-28T20:45:48.148Z,21.07
2022-11-28T20:48:50.710Z,21.23
2022-11-28T20:51:52.873Z,20.80
2022-11-28T20:54:54.722Z,33.93
2022-11-28T20:57:56.902Z,26.23
2022-11-28T21:00:59.204Z,21.07
2022-11-28T21:04:03.757Z,22.20
2022-11-28T21:07:05.731Z,21.43
2022-11-28T21:10:08.334Z,20.70
2022-11-28T21:13:10.208Z,21.87
2022-11-28T21:16:15.569Z,22.27
2022-11-28T21:19:19.379Z,21.47
2022-11-28T21:22:21.508Z,22.00
2022-11-28T21:25:23.509Z,22.03
2022-11-28T21:28:25.586Z,21.60
2022-11-28T21:31:31.474Z,23.20
2022-11-28T21:34:33.840Z,23.93
2022-11-28T21:37:35.706Z,35.30
2022-11-28T21:40:37.930Z,24.33
2022-11-28T21:43:40.020Z,22.00
2022-11-28T21:46:43.431Z,21.40
2022-11-28T21:49:47.082Z,21.40
2022-11-28T21:52:49.347Z,23.73
2022-11-28T21:55:51.349Z,23.33
2022-11-28T21:58:54.034Z,22.57
2022-11-28T22:01:57.979Z,24.40
2022-11-28T22:05:00.171Z,21.90
2022-11-28T22:08:03.908Z,24.97
2022-11-28T22:11:11.100Z,26.40
2022-11-28T22:14:14.327Z,24.67
2022-11-28T22:17:16.439Z,25.63
2022-11-28T22:20:18.334Z,24.83
2022-11-28T22:23:20.488Z,25.50
2022-11-28T22:26:22.317Z,26.57
2022-11-28T22:29:24.641Z,25.23
2022-11-28T22:32:26.501Z,27.03
2022-11-28T22:35:29.693Z,26.33
2022-11-28T22:38:31.843Z,28.53
2022-11-28T22:41:33.996Z,27.57
2022-11-28T22:44:35.871Z,27.40
2022-11-28T22:47:38.129Z,26.17
2022-11-28T22:50:41.585Z,27.07
2022-11-28T22:53:44.038Z,26.13
2022-11-28T22:56:45.961Z,24.83
2022-11-28T22:59:48.052Z,23.70
2022-11-28T23:02:49.967Z,24.77
2022-11-28T23:05:52.313Z,24.73
2022-11-28T23:08:55.733Z,22.47
2022-11-28T23:11:58.595Z,23.40
2022-11-28T23:15:00.527Z,22.13
2022-11-28T23:18:02.707Z,22.90
2022-11-28T23:21:04.731Z,21.77
2022-11-28T23:24:07.565Z,20.20
2022-11-28T23:27:09.415Z,21.17
2022-11-28T23:30:11.847Z,23.17
2022-11-28T23:33:13.746Z,19.13
2022-11-28T23:36:24.785Z,18.90
2022-11-28T23:39:26.937Z,21.03
2022-11-28T23:42:30.502Z,21.17
2022-11-28T23:45:32.334Z,21.30
2022-11-28T23:48:34.876Z,20.80
2022-11-28T23:51:38.701Z,19.67
2022-11-28T23:54:40.993Z,19.90
2022-11-28T23:57:43.177Z,20.47
